Decoded Metar for CYPH (INUKJUAK in QC, CANADA) (IATA:YPH) | Meteo·Mobile Aviation Weather
aviador You're here:

CYPH Decoded Metar

INUKJUAK in QC, CANADA
Report Time2018-12-11 02:00:00
UTC Time2018-12-11 03:00:33
Flight Rules vfr VFR
Wind050° at 06 kt
W.Decomp.*RWY 07: 6.0 kt HW 0.1 kt LCW
W.Rank050° ranks 5
Current wind is below 050° avg. (9.2)
Visibility9999 m
Phenomena:N/A
Clouds:N/A
Expected CloudBase > 1,600 ft AGL from Temp-Dew spread
CeilingNone
Temp-29°C (ISA -44)
Dew Point-33°C (68% RH)
AAT-35.0°C
QNH1025 hPa
Density Alt-6,165 ft
Elevation10 ft
Report Wrong Elevation
Raw Report
CYPH 110200Z AUTO 05006KT 9SM CLR M29/M33 A3027 RMK SLP257=

Extra information for CYPH:More info

Metar Taf Metar & Taf Last 4 Metars F.Rules Stats Wind Profile Meteogram Temp Stats Airport Information Weather charts Add Link Nearby VenuesMetar ALERT Operation Metar Decoded Social comments